首页
METAR-TAF:

METAR-TAF

机场 :

佩皮尼昂, 法国

纬度: 42-44N, 经度: 002-52E, 海拔: 43米

当前天气观测

该预报发布于14分钟前的13:30 UTC
风速15节,风向西转西北,在西北转西北之间变化
温度 16°C
湿度 51%
气压 1010 hPa
能见度10公里或以上
散云层高于4300英尺
散云层高于12000英尺

METAR: LFMP 261330Z AUTO 29015KT 260V340 9999 SCT043 SCT120 16/06 Q1010 TEMPO 29015G30KT

时间: 14:44 (13:44 UTC)

预报

该预报发布于5小时和44分钟前的08:00 UTC
预报有效从26日的 09点(UTC)到 27日的 09点(UTC)
风速10节,风向西北
能见度10公里或以上
散云层高于4000英尺
多云层高于7000英尺
短暂存在
从 26日的 09点(UTC)到 26日的 11点(UTC)
风速15节,风向西北,有时为25节阵风
成为
从 26日的 11点(UTC)到 26日的 13点(UTC)
能见度10公里或以上
1500米以下无云,无积雨云
短暂存在
从 26日的 15点(UTC)到 27日的 06点(UTC)
风速15节,风向西转西北,有时为30节阵风

TAF: LFMP 260800Z 2609/2709 31010KT 9999 SCT040 BKN070 TEMPO 2609/2611 31015G25KT RA BECMG 2611/2613 CAVOK TEMPO 2615/2706 29015G30KT

超过4000个机场的气象观测和天气预报(METAR&TAF报告)。

可查询的气象台以黄色和红色小点在地图上表示。

将鼠标移到小点上方,可查看气象台名称。

然后点击查看天气观测和预报。

如需切换地图:点击带黑十字的绿色按钮放大地图;点击带横线的绿色按钮缩小地图;或者点击绿色箭头查看邻近地区的地图。


METAR-TAF: